sensor_id;sensor_type;location;lat;lon;timestamp;P1;durP1;ratioP1;P2;durP2;ratioP2
76640;SDS011;65538;50.798;6.064;2023-10-13T00:00:37;13.27;;;6.43;;
76640;SDS011;65538;50.798;6.064;2023-10-13T00:03:05;14.77;;;7.47;;
76640;SDS011;65538;50.798;6.064;2023-10-13T00:05:31;12.43;;;6.05;;
76640;SDS011;65538;50.798;6.064;2023-10-13T00:07:58;11.68;;;5.97;;
76640;SDS011;65538;50.798;6.064;2023-10-13T00:10:26;15.05;;;7.30;;
76640;SDS011;65538;50.798;6.064;2023-10-13T00:12:51;13.15;;;7.30;;
76640;SDS011;65538;50.798;6.064;2023-10-13T00:15:21;12.85;;;7.45;;
76640;SDS011;65538;50.798;6.064;2023-10-13T00:20:18;11.70;;;6.07;;
76640;SDS011;65538;50.798;6.064;2023-10-13T00:22:59;12.18;;;6.18;;
76640;SDS011;65538;50.798;6.064;2023-10-13T00:25:24;16.13;;;7.72;;
76640;SDS011;65538;50.798;6.064;2023-10-13T00:27:56;11.55;;;6.70;;
76640;SDS011;65538;50.798;6.064;2023-10-13T00:30:22;12.65;;;6.93;;
76640;SDS011;65538;50.798;6.064;2023-10-13T00:32:58;15.35;;;7.00;;
76640;SDS011;65538;50.798;6.064;2023-10-13T00:35:24;14.60;;;7.47;;
76640;SDS011;65538;50.798;6.064;2023-10-13T00:37:53;13.52;;;6.82;;
76640;SDS011;65538;50.798;6.064;2023-10-13T00:40:18;11.43;;;6.40;;
76640;SDS011;65538;50.798;6.064;2023-10-13T00:43:04;17.83;;;7.65;;
76640;SDS011;65538;50.798;6.064;2023-10-13T00:48:10;14.55;;;7.28;;
76640;SDS011;65538;50.798;6.064;2023-10-13T00:50:36;15.32;;;7.68;;
76640;SDS011;65538;50.798;6.064;2023-10-13T00:53:02;15.13;;;8.25;;
76640;SDS011;65538;50.798;6.064;2023-10-13T00:55:28;14.20;;;8.63;;
76640;SDS011;65538;50.798;6.064;2023-10-13T00:58:01;13.07;;;7.60;;
76640;SDS011;65538;50.798;6.064;2023-10-13T01:00:31;14.63;;;7.85;;
76640;SDS011;65538;50.798;6.064;2023-10-13T01:02:56;16.10;;;9.13;;
76640;SDS011;65538;50.798;6.064;2023-10-13T01:05:25;18.50;;;8.70;;
76640;SDS011;65538;50.798;6.064;2023-10-13T01:07:50;16.27;;;8.57;;
76640;SDS011;65538;50.798;6.064;2023-10-13T01:10:19;14.05;;;7.97;;
76640;SDS011;65538;50.798;6.064;2023-10-13T01:12:45;13.40;;;7.22;;
76640;SDS011;65538;50.798;6.064;2023-10-13T01:15:17;14.95;;;8.15;;
76640;SDS011;65538;50.798;6.064;2023-10-13T01:17:45;15.32;;;7.88;;
76640;SDS011;65538;50.798;6.064;2023-10-13T01:20:11;14.20;;;8.43;;
76640;SDS011;65538;50.798;6.064;2023-10-13T01:22:43;19.42;;;8.13;;
76640;SDS011;65538;50.798;6.064;2023-10-13T01:25:08;16.00;;;8.10;;
76640;SDS011;65538;50.798;6.064;2023-10-13T01:27:38;20.48;;;9.48;;
76640;SDS011;65538;50.798;6.064;2023-10-13T01:30:03;19.60;;;10.52;;
76640;SDS011;65538;50.798;6.064;2023-10-13T01:32:38;18.02;;;9.57;;
76640;SDS011;65538;50.798;6.064;2023-10-13T01:35:06;15.30;;;8.43;;
76640;SDS011;65538;50.798;6.064;2023-10-13T01:37:31;15.13;;;7.70;;
76640;SDS011;65538;50.798;6.064;2023-10-13T01:39:56;16.73;;;8.73;;
76640;SDS011;65538;50.798;6.064;2023-10-13T01:42:22;18.00;;;8.60;;
76640;SDS011;65538;50.798;6.064;2023-10-13T01:44:49;19.95;;;10.20;;
76640;SDS011;65538;50.798;6.064;2023-10-13T01:47:14;17.30;;;8.90;;
76640;SDS011;65538;50.798;6.064;2023-10-13T01:49:41;14.70;;;9.75;;
76640;SDS011;65538;50.798;6.064;2023-10-13T01:52:12;19.73;;;8.68;;
76640;SDS011;65538;50.798;6.064;2023-10-13T01:54:40;15.32;;;8.15;;
76640;SDS011;65538;50.798;6.064;2023-10-13T01:57:09;15.38;;;7.75;;
76640;SDS011;65538;50.798;6.064;2023-10-13T01:59:38;16.85;;;8.30;;
76640;SDS011;65538;50.798;6.064;2023-10-13T02:02:08;19.13;;;9.32;;
76640;SDS011;65538;50.798;6.064;2023-10-13T02:04:37;18.60;;;7.47;;
76640;SDS011;65538;50.798;6.064;2023-10-13T02:07:07;12.23;;;7.53;;
76640;SDS011;65538;50.798;6.064;2023-10-13T02:09:33;16.00;;;9.00;;
76640;SDS011;65538;50.798;6.064;2023-10-13T02:14:27;19.65;;;9.43;;
76640;SDS011;65538;50.798;6.064;2023-10-13T02:16:52;20.60;;;9.40;;
76640;SDS011;65538;50.798;6.064;2023-10-13T02:19:36;17.45;;;7.30;;
76640;SDS011;65538;50.798;6.064;2023-10-13T02:22:04;14.20;;;7.32;;
76640;SDS011;65538;50.798;6.064;2023-10-13T02:24:32;16.48;;;8.35;;
76640;SDS011;65538;50.798;6.064;2023-10-13T02:26:57;13.55;;;7.05;;
76640;SDS011;65538;50.798;6.064;2023-10-13T02:29:34;17.02;;;7.10;;
76640;SDS011;65538;50.798;6.064;2023-10-13T02:32:04;14.18;;;7.05;;
76640;SDS011;65538;50.798;6.064;2023-10-13T02:34:29;15.43;;;7.00;;
76640;SDS011;65538;50.798;6.064;2023-10-13T02:36:56;13.63;;;7.60;;
76640;SDS011;65538;50.798;6.064;2023-10-13T02:39:21;13.00;;;6.23;;
76640;SDS011;65538;50.798;6.064;2023-10-13T02:41:51;10.98;;;4.90;;
76640;SDS011;65538;50.798;6.064;2023-10-13T02:44:17;13.20;;;5.65;;
76640;SDS011;65538;50.798;6.064;2023-10-13T02:46:55;10.77;;;6.38;;
76640;SDS011;65538;50.798;6.064;2023-10-13T02:49:21;13.35;;;6.05;;
76640;SDS011;65538;50.798;6.064;2023-10-13T02:51:47;10.40;;;5.10;;
76640;SDS011;65538;50.798;6.064;2023-10-13T02:54:12;17.90;;;6.17;;
76640;SDS011;65538;50.798;6.064;2023-10-13T02:56:43;12.55;;;6.25;;
76640;SDS011;65538;50.798;6.064;2023-10-13T02:59:26;14.55;;;7.05;;
76640;SDS011;65538;50.798;6.064;2023-10-13T03:02:11;15.07;;;6.93;;
76640;SDS011;65538;50.798;6.064;2023-10-13T03:04:51;13.98;;;6.10;;
76640;SDS011;65538;50.798;6.064;2023-10-13T03:07:17;10.00;;;4.97;;
76640;SDS011;65538;50.798;6.064;2023-10-13T03:09:49;15.65;;;6.88;;
76640;SDS011;65538;50.798;6.064;2023-10-13T03:14:42;11.07;;;5.10;;
76640;SDS011;65538;50.798;6.064;2023-10-13T03:17:09;11.95;;;5.85;;
76640;SDS011;65538;50.798;6.064;2023-10-13T03:19:41;14.20;;;6.35;;
76640;SDS011;65538;50.798;6.064;2023-10-13T03:22:11;10.82;;;5.40;;
76640;SDS011;65538;50.798;6.064;2023-10-13T03:24:37;12.65;;;6.30;;
76640;SDS011;65538;50.798;6.064;2023-10-13T03:27:09;9.52;;;4.72;;
76640;SDS011;65538;50.798;6.064;2023-10-13T03:29:38;14.87;;;6.50;;
76640;SDS011;65538;50.798;6.064;2023-10-13T03:32:10;15.27;;;6.40;;
76640;SDS011;65538;50.798;6.064;2023-10-13T03:34:40;16.17;;;6.30;;
76640;SDS011;65538;50.798;6.064;2023-10-13T03:37:17;11.63;;;5.50;;
76640;SDS011;65538;50.798;6.064;2023-10-13T03:39:44;14.38;;;6.03;;
76640;SDS011;65538;50.798;6.064;2023-10-13T03:42:10;12.48;;;5.40;;
76640;SDS011;65538;50.798;6.064;2023-10-13T03:44:43;13.65;;;5.53;;
76640;SDS011;65538;50.798;6.064;2023-10-13T03:47:11;11.15;;;5.57;;
76640;SDS011;65538;50.798;6.064;2023-10-13T03:49:43;12.93;;;6.05;;
76640;SDS011;65538;50.798;6.064;2023-10-13T03:52:08;11.38;;;5.45;;
76640;SDS011;65538;50.798;6.064;2023-10-13T03:54:38;17.42;;;5.88;;
76640;SDS011;65538;50.798;6.064;2023-10-13T03:57:05;10.98;;;5.78;;
76640;SDS011;65538;50.798;6.064;2023-10-13T03:59:36;16.38;;;6.05;;
76640;SDS011;65538;50.798;6.064;2023-10-13T04:02:01;16.80;;;6.23;;
76640;SDS011;65538;50.798;6.064;2023-10-13T04:04:28;13.57;;;6.30;;
76640;SDS011;65538;50.798;6.064;2023-10-13T04:07:02;11.80;;;6.15;;
76640;SDS011;65538;50.798;6.064;2023-10-13T04:09:34;9.55;;;6.07;;
76640;SDS011;65538;50.798;6.064;2023-10-13T04:12:20;10.90;;;5.90;;
76640;SDS011;65538;50.798;6.064;2023-10-13T04:15:04;11.15;;;5.50;;
76640;SDS011;65538;50.798;6.064;2023-10-13T04:17:29;15.10;;;6.20;;
76640;SDS011;65538;50.798;6.064;2023-10-13T04:20:01;10.77;;;5.22;;
76640;SDS011;65538;50.798;6.064;2023-10-13T04:22:33;12.90;;;5.85;;
76640;SDS011;65538;50.798;6.064;2023-10-13T04:27:58;13.07;;;5.65;;
76640;SDS011;65538;50.798;6.064;2023-10-13T04:30:41;13.02;;;5.80;;
76640;SDS011;65538;50.798;6.064;2023-10-13T04:33:25;14.73;;;5.47;;
76640;SDS011;65538;50.798;6.064;2023-10-13T04:35:59;13.88;;;4.25;;
76640;SDS011;65538;50.798;6.064;2023-10-13T04:38:25;12.05;;;5.85;;
76640;SDS011;65538;50.798;6.064;2023-10-13T04:40:58;18.77;;;6.22;;
76640;SDS011;65538;50.798;6.064;2023-10-13T04:43:26;12.45;;;4.90;;
76640;SDS011;65538;50.798;6.064;2023-10-13T04:45:59;11.50;;;5.40;;
76640;SDS011;65538;50.798;6.064;2023-10-13T04:48:39;14.07;;;5.43;;
76640;SDS011;65538;50.798;6.064;2023-10-13T04:51:04;9.38;;;4.60;;
76640;SDS011;65538;50.798;6.064;2023-10-13T04:54:08;9.25;;;4.13;;
76640;SDS011;65538;50.798;6.064;2023-10-13T04:56:50;13.77;;;5.07;;
76640;SDS011;65538;50.798;6.064;2023-10-13T04:59:38;17.00;;;5.07;;
76640;SDS011;65538;50.798;6.064;2023-10-13T05:02:23;10.93;;;4.95;;
76640;SDS011;65538;50.798;6.064;2023-10-13T05:05:10;12.32;;;4.82;;
76640;SDS011;65538;50.798;6.064;2023-10-13T05:07:39;14.63;;;5.30;;
76640;SDS011;65538;50.798;6.064;2023-10-13T05:10:23;14.32;;;4.80;;
76640;SDS011;65538;50.798;6.064;2023-10-13T05:13:07;14.05;;;4.93;;
76640;SDS011;65538;50.798;6.064;2023-10-13T05:15:51;16.50;;;6.50;;
76640;SDS011;65538;50.798;6.064;2023-10-13T05:18:35;14.98;;;5.72;;
76640;SDS011;65538;50.798;6.064;2023-10-13T05:21:19;15.77;;;5.78;;
76640;SDS011;65538;50.798;6.064;2023-10-13T05:24:03;14.30;;;5.90;;
76640;SDS011;65538;50.798;6.064;2023-10-13T05:26:47;18.40;;;5.75;;
76640;SDS011;65538;50.798;6.064;2023-10-13T05:29:31;14.50;;;5.25;;
76640;SDS011;65538;50.798;6.064;2023-10-13T05:32:15;18.88;;;5.68;;
76640;SDS011;65538;50.798;6.064;2023-10-13T05:34:59;16.63;;;5.53;;
76640;SDS011;65538;50.798;6.064;2023-10-13T05:37:43;16.38;;;5.65;;
76640;SDS011;65538;50.798;6.064;2023-10-13T05:40:27;11.27;;;4.45;;
76640;SDS011;65538;50.798;6.064;2023-10-13T05:43:11;11.50;;;4.88;;
76640;SDS011;65538;50.798;6.064;2023-10-13T05:46:01;11.88;;;5.22;;
76640;SDS011;65538;50.798;6.064;2023-10-13T05:48:45;23.15;;;5.88;;
76640;SDS011;65538;50.798;6.064;2023-10-13T05:51:19;15.45;;;5.38;;
76640;SDS011;65538;50.798;6.064;2023-10-13T05:54:03;12.48;;;4.13;;
76640;SDS011;65538;50.798;6.064;2023-10-13T05:56:41;19.35;;;5.72;;
76640;SDS011;65538;50.798;6.064;2023-10-13T05:59:25;16.73;;;4.93;;
76640;SDS011;65538;50.798;6.064;2023-10-13T06:02:08;16.30;;;5.47;;
76640;SDS011;65538;50.798;6.064;2023-10-13T06:04:52;14.90;;;5.22;;
76640;SDS011;65538;50.798;6.064;2023-10-13T06:07:36;16.23;;;4.97;;
76640;SDS011;65538;50.798;6.064;2023-10-13T06:10:20;17.88;;;5.25;;
76640;SDS011;65538;50.798;6.064;2023-10-13T06:13:04;16.08;;;5.13;;
76640;SDS011;65538;50.798;6.064;2023-10-13T06:15:48;16.23;;;5.18;;
76640;SDS011;65538;50.798;6.064;2023-10-13T06:18:32;14.50;;;4.88;;
76640;SDS011;65538;50.798;6.064;2023-10-13T06:21:16;16.95;;;4.63;;
76640;SDS011;65538;50.798;6.064;2023-10-13T06:24:00;14.35;;;4.80;;
76640;SDS011;65538;50.798;6.064;2023-10-13T06:26:47;15.00;;;5.18;;
76640;SDS011;65538;50.798;6.064;2023-10-13T06:29:31;14.48;;;5.05;;
76640;SDS011;65538;50.798;6.064;2023-10-13T06:31:56;14.27;;;5.13;;
76640;SDS011;65538;50.798;6.064;2023-10-13T06:34:23;16.50;;;5.10;;
76640;SDS011;65538;50.798;6.064;2023-10-13T06:37:02;11.57;;;3.55;;
76640;SDS011;65538;50.798;6.064;2023-10-13T06:39:27;9.73;;;4.80;;
76640;SDS011;65538;50.798;6.064;2023-10-13T06:42:02;11.40;;;3.88;;
76640;SDS011;65538;50.798;6.064;2023-10-13T06:44:28;15.75;;;4.32;;
76640;SDS011;65538;50.798;6.064;2023-10-13T06:46:57;19.75;;;5.47;;
76640;SDS011;65538;50.798;6.064;2023-10-13T06:49:22;14.30;;;5.20;;
76640;SDS011;65538;50.798;6.064;2023-10-13T06:51:48;17.70;;;5.28;;
76640;SDS011;65538;50.798;6.064;2023-10-13T06:54:14;17.17;;;5.60;;
76640;SDS011;65538;50.798;6.064;2023-10-13T06:56:46;11.65;;;3.75;;
76640;SDS011;65538;50.798;6.064;2023-10-13T06:59:12;9.63;;;3.33;;
76640;SDS011;65538;50.798;6.064;2023-10-13T07:01:39;12.98;;;4.15;;
76640;SDS011;65538;50.798;6.064;2023-10-13T07:04:06;13.45;;;4.88;;
76640;SDS011;65538;50.798;6.064;2023-10-13T07:06:38;11.02;;;3.28;;
76640;SDS011;65538;50.798;6.064;2023-10-13T07:09:07;12.55;;;4.45;;
76640;SDS011;65538;50.798;6.064;2023-10-13T07:11:40;9.13;;;3.20;;
76640;SDS011;65538;50.798;6.064;2023-10-13T07:14:08;14.35;;;4.60;;
76640;SDS011;65538;50.798;6.064;2023-10-13T07:16:55;14.25;;;3.92;;
76640;SDS011;65538;50.798;6.064;2023-10-13T07:19:23;11.98;;;4.50;;
76640;SDS011;65538;50.798;6.064;2023-10-13T07:21:52;13.68;;;4.65;;
76640;SDS011;65538;50.798;6.064;2023-10-13T07:24:23;17.58;;;4.88;;
76640;SDS011;65538;50.798;6.064;2023-10-13T07:26:49;15.88;;;3.65;;
76640;SDS011;65538;50.798;6.064;2023-10-13T07:29:22;12.23;;;3.95;;
76640;SDS011;65538;50.798;6.064;2023-10-13T07:31:50;11.50;;;3.38;;
76640;SDS011;65538;50.798;6.064;2023-10-13T07:34:15;13.60;;;3.47;;
76640;SDS011;65538;50.798;6.064;2023-10-13T07:36:56;14.70;;;3.97;;
76640;SDS011;65538;50.798;6.064;2023-10-13T07:39:25;13.98;;;4.55;;
76640;SDS011;65538;50.798;6.064;2023-10-13T07:41:51;11.35;;;4.25;;
76640;SDS011;65538;50.798;6.064;2023-10-13T07:44:28;19.73;;;5.93;;
76640;SDS011;65538;50.798;6.064;2023-10-13T07:46:57;15.68;;;4.43;;
76640;SDS011;65538;50.798;6.064;2023-10-13T07:49:27;11.25;;;3.83;;
76640;SDS011;65538;50.798;6.064;2023-10-13T07:51:56;15.15;;;4.22;;
76640;SDS011;65538;50.798;6.064;2023-10-13T07:54:22;15.50;;;5.00;;
76640;SDS011;65538;50.798;6.064;2023-10-13T07:56:48;10.98;;;4.07;;
76640;SDS011;65538;50.798;6.064;2023-10-13T07:59:13;8.48;;;3.78;;
76640;SDS011;65538;50.798;6.064;2023-10-13T08:01:40;15.23;;;4.40;;
76640;SDS011;65538;50.798;6.064;2023-10-13T08:04:08;9.52;;;3.30;;
76640;SDS011;65538;50.798;6.064;2023-10-13T08:06:36;20.02;;;4.82;;
76640;SDS011;65538;50.798;6.064;2023-10-13T08:09:02;14.60;;;3.60;;
76640;SDS011;65538;50.798;6.064;2023-10-13T08:11:34;14.30;;;4.95;;
76640;SDS011;65538;50.798;6.064;2023-10-13T08:14:00;10.77;;;4.57;;
76640;SDS011;65538;50.798;6.064;2023-10-13T08:16:35;11.50;;;4.63;;
76640;SDS011;65538;50.798;6.064;2023-10-13T08:19:23;18.83;;;5.03;;
76640;SDS011;65538;50.798;6.064;2023-10-13T08:22:08;12.57;;;5.25;;
76640;SDS011;65538;50.798;6.064;2023-10-13T08:24:48;14.45;;;5.20;;
76640;SDS011;65538;50.798;6.064;2023-10-13T08:27:23;10.73;;;4.47;;
76640;SDS011;65538;50.798;6.064;2023-10-13T08:29:59;7.40;;;3.42;;
76640;SDS011;65538;50.798;6.064;2023-10-13T08:32:27;15.75;;;5.30;;
76640;SDS011;65538;50.798;6.064;2023-10-13T08:34:54;16.95;;;5.05;;
76640;SDS011;65538;50.798;6.064;2023-10-13T08:37:19;9.85;;;4.18;;
76640;SDS011;65538;50.798;6.064;2023-10-13T08:42:31;13.02;;;3.75;;
76640;SDS011;65538;50.798;6.064;2023-10-13T08:47:32;11.82;;;4.57;;
76640;SDS011;65538;50.798;6.064;2023-10-13T08:52:35;10.23;;;4.63;;
76640;SDS011;65538;50.798;6.064;2023-10-13T08:55:11;12.55;;;4.15;;
76640;SDS011;65538;50.798;6.064;2023-10-13T08:57:56;13.15;;;5.65;;
76640;SDS011;65538;50.798;6.064;2023-10-13T09:00:27;15.00;;;4.53;;
76640;SDS011;65538;50.798;6.064;2023-10-13T09:03:11;11.43;;;6.07;;
76640;SDS011;65538;50.798;6.064;2023-10-13T09:05:53;12.02;;;5.95;;
76640;SDS011;65538;50.798;6.064;2023-10-13T09:08:31;11.45;;;5.45;;
76640;SDS011;65538;50.798;6.064;2023-10-13T09:11:15;15.75;;;6.10;;
76640;SDS011;65538;50.798;6.064;2023-10-13T09:13:45;12.13;;;6.18;;
76640;SDS011;65538;50.798;6.064;2023-10-13T09:16:11;13.13;;;4.93;;
76640;SDS011;65538;50.798;6.064;2023-10-13T09:19:01;12.30;;;5.75;;
76640;SDS011;65538;50.798;6.064;2023-10-13T09:21:26;17.27;;;5.50;;
76640;SDS011;65538;50.798;6.064;2023-10-13T09:24:08;16.58;;;6.70;;
76640;SDS011;65538;50.798;6.064;2023-10-13T09:26:46;11.38;;;5.57;;
76640;SDS011;65538;50.798;6.064;2023-10-13T09:29:15;11.70;;;5.20;;
76640;SDS011;65538;50.798;6.064;2023-10-13T09:31:42;9.43;;;5.10;;
76640;SDS011;65538;50.798;6.064;2023-10-13T09:34:10;12.52;;;5.30;;
76640;SDS011;65538;50.798;6.064;2023-10-13T09:36:35;8.50;;;4.30;;
76640;SDS011;65538;50.798;6.064;2023-10-13T09:39:00;16.02;;;7.05;;
76640;SDS011;65538;50.798;6.064;2023-10-13T09:41:55;10.88;;;5.60;;
76640;SDS011;65538;50.798;6.064;2023-10-13T09:44:24;12.40;;;5.88;;
76640;SDS011;65538;50.798;6.064;2023-10-13T09:46:51;11.80;;;5.10;;
76640;SDS011;65538;50.798;6.064;2023-10-13T09:49:18;17.45;;;5.82;;
76640;SDS011;65538;50.798;6.064;2023-10-13T09:51:59;11.73;;;6.28;;
76640;SDS011;65538;50.798;6.064;2023-10-13T09:54:29;11.15;;;5.63;;
76640;SDS011;65538;50.798;6.064;2023-10-13T09:57:07;12.63;;;5.15;;
76640;SDS011;65538;50.798;6.064;2023-10-13T09:59:54;11.35;;;6.10;;
76640;SDS011;65538;50.798;6.064;2023-10-13T10:02:21;16.75;;;6.07;;
76640;SDS011;65538;50.798;6.064;2023-10-13T10:04:56;11.60;;;6.38;;
76640;SDS011;65538;50.798;6.064;2023-10-13T10:07:37;17.90;;;7.75;;
76640;SDS011;65538;50.798;6.064;2023-10-13T10:10:04;9.95;;;4.80;;
76640;SDS011;65538;50.798;6.064;2023-10-13T10:12:49;16.48;;;8.38;;
76640;SDS011;65538;50.798;6.064;2023-10-13T10:17:53;12.32;;;4.90;;
76640;SDS011;65538;50.798;6.064;2023-10-13T10:20:27;10.32;;;5.28;;
76640;SDS011;65538;50.798;6.064;2023-10-13T10:22:58;14.48;;;5.68;;
76640;SDS011;65538;50.798;6.064;2023-10-13T10:25:30;10.88;;;4.78;;
76640;SDS011;65538;50.798;6.064;2023-10-13T10:28:00;8.85;;;4.82;;
76640;SDS011;65538;50.798;6.064;2023-10-13T10:30:26;10.27;;;5.03;;
76640;SDS011;65538;50.798;6.064;2023-10-13T10:32:55;10.73;;;5.38;;
76640;SDS011;65538;50.798;6.064;2023-10-13T10:35:33;13.98;;;6.53;;
76640;SDS011;65538;50.798;6.064;2023-10-13T10:38:08;11.00;;;5.78;;
76640;SDS011;65538;50.798;6.064;2023-10-13T10:40:57;16.25;;;6.32;;
76640;SDS011;65538;50.798;6.064;2023-10-13T10:43:26;18.15;;;5.82;;
76640;SDS011;65538;50.798;6.064;2023-10-13T10:45:52;18.30;;;6.00;;
76640;SDS011;65538;50.798;6.064;2023-10-13T10:48:18;12.80;;;4.85;;
76640;SDS011;65538;50.798;6.064;2023-10-13T10:50:55;12.32;;;5.18;;
76640;SDS011;65538;50.798;6.064;2023-10-13T10:53:21;14.32;;;5.65;;
76640;SDS011;65538;50.798;6.064;2023-10-13T10:55:47;12.10;;;4.80;;
76640;SDS011;65538;50.798;6.064;2023-10-13T10:58:12;17.27;;;6.43;;
76640;SDS011;65538;50.798;6.064;2023-10-13T11:05:51;11.45;;;4.90;;
76640;SDS011;65538;50.798;6.064;2023-10-13T11:08:20;16.33;;;5.23;;
76640;SDS011;65538;50.798;6.064;2023-10-13T11:10:50;14.18;;;4.88;;
76640;SDS011;65538;50.798;6.064;2023-10-13T11:13:15;18.53;;;6.33;;
76640;SDS011;65538;50.798;6.064;2023-10-13T11:15:46;21.35;;;6.30;;
76640;SDS011;65538;50.798;6.064;2023-10-13T11:18:12;12.27;;;4.22;;
76640;SDS011;65538;50.798;6.064;2023-10-13T11:20:46;29.50;;;5.85;;
76640;SDS011;65538;50.798;6.064;2023-10-13T11:23:11;12.77;;;4.60;;
76640;SDS011;65538;50.798;6.064;2023-10-13T11:25:37;10.73;;;4.07;;
76640;SDS011;65538;50.798;6.064;2023-10-13T11:30:42;16.25;;;4.88;;
76640;SDS011;65538;50.798;6.064;2023-10-13T11:33:10;12.52;;;4.03;;
76640;SDS011;65538;50.798;6.064;2023-10-13T11:35:37;7.03;;;3.83;;
76640;SDS011;65538;50.798;6.064;2023-10-13T11:38:24;18.85;;;5.60;;
76640;SDS011;65538;50.798;6.064;2023-10-13T11:43:30;15.48;;;5.07;;
76640;SDS011;65538;50.798;6.064;2023-10-13T11:46:00;12.02;;;3.75;;
76640;SDS011;65538;50.798;6.064;2023-10-13T11:48:34;18.00;;;5.03;;
76640;SDS011;65538;50.798;6.064;2023-10-13T11:51:02;21.70;;;5.25;;
76640;SDS011;65538;50.798;6.064;2023-10-13T11:53:47;20.23;;;5.15;;
76640;SDS011;65538;50.798;6.064;2023-10-13T11:56:17;14.35;;;6.05;;
76640;SDS011;65538;50.798;6.064;2023-10-13T11:58:42;22.58;;;5.00;;
76640;SDS011;65538;50.798;6.064;2023-10-13T12:01:07;11.67;;;5.00;;
76640;SDS011;65538;50.798;6.064;2023-10-13T12:03:46;19.90;;;6.15;;
76640;SDS011;65538;50.798;6.064;2023-10-13T12:06:30;16.05;;;5.05;;
76640;SDS011;65538;50.798;6.064;2023-10-13T12:08:59;10.25;;;3.85;;
76640;SDS011;65538;50.798;6.064;2023-10-13T12:11:36;17.00;;;5.30;;
76640;SDS011;65538;50.798;6.064;2023-10-13T12:14:04;12.82;;;4.60;;
76640;SDS011;65538;50.798;6.064;2023-10-13T12:16:36;13.43;;;4.70;;
76640;SDS011;65538;50.798;6.064;2023-10-13T12:19:02;15.37;;;4.83;;
76640;SDS011;65538;50.798;6.064;2023-10-13T12:21:27;19.00;;;5.30;;
76640;SDS011;65538;50.798;6.064;2023-10-13T12:23:52;15.87;;;4.60;;
76640;SDS011;65538;50.798;6.064;2023-10-13T12:26:19;15.35;;;5.05;;
76640;SDS011;65538;50.798;6.064;2023-10-13T12:28:44;14.65;;;4.13;;
76640;SDS011;65538;50.798;6.064;2023-10-13T12:31:16;24.38;;;5.60;;
76640;SDS011;65538;50.798;6.064;2023-10-13T12:33:42;13.18;;;4.10;;
76640;SDS011;65538;50.798;6.064;2023-10-13T12:36:07;12.55;;;4.82;;
76640;SDS011;65538;50.798;6.064;2023-10-13T12:38:38;16.20;;;4.72;;
76640;SDS011;65538;50.798;6.064;2023-10-13T12:41:16;12.63;;;3.72;;
76640;SDS011;65538;50.798;6.064;2023-10-13T12:44:00;17.05;;;4.60;;
76640;SDS011;65538;50.798;6.064;2023-10-13T12:46:44;16.98;;;5.68;;
76640;SDS011;65538;50.798;6.064;2023-10-13T12:49:28;16.90;;;5.47;;
76640;SDS011;65538;50.798;6.064;2023-10-13T12:52:12;20.45;;;5.32;;
76640;SDS011;65538;50.798;6.064;2023-10-13T12:54:56;14.43;;;4.03;;
76640;SDS011;65538;50.798;6.064;2023-10-13T12:57:21;14.23;;;4.93;;
76640;SDS011;65538;50.798;6.064;2023-10-13T12:59:48;9.88;;;4.72;;
76640;SDS011;65538;50.798;6.064;2023-10-13T13:02:13;13.18;;;4.93;;
76640;SDS011;65538;50.798;6.064;2023-10-13T13:04:41;15.93;;;4.95;;
76640;SDS011;65538;50.798;6.064;2023-10-13T13:07:09;17.73;;;4.93;;
76640;SDS011;65538;50.798;6.064;2023-10-13T13:09:38;17.27;;;6.18;;
76640;SDS011;65538;50.798;6.064;2023-10-13T13:12:03;12.37;;;4.90;;
76640;SDS011;65538;50.798;6.064;2023-10-13T13:14:31;21.83;;;4.95;;
76640;SDS011;65538;50.798;6.064;2023-10-13T13:16:58;18.85;;;5.40;;
76640;SDS011;65538;50.798;6.064;2023-10-13T13:19:38;9.63;;;3.60;;
76640;SDS011;65538;50.798;6.064;2023-10-13T13:22:07;17.95;;;5.85;;
76640;SDS011;65538;50.798;6.064;2023-10-13T13:24:43;20.92;;;6.28;;
76640;SDS011;65538;50.798;6.064;2023-10-13T13:27:09;18.05;;;5.35;;
76640;SDS011;65538;50.798;6.064;2023-10-13T13:29:34;9.40;;;3.58;;
76640;SDS011;65538;50.798;6.064;2023-10-13T13:32:02;16.27;;;5.25;;
76640;SDS011;65538;50.798;6.064;2023-10-13T13:34:30;12.50;;;5.75;;
76640;SDS011;65538;50.798;6.064;2023-10-13T13:36:56;18.47;;;5.50;;
76640;SDS011;65538;50.798;6.064;2023-10-13T13:39:25;13.10;;;5.40;;
76640;SDS011;65538;50.798;6.064;2023-10-13T13:41:55;17.20;;;4.40;;
76640;SDS011;65538;50.798;6.064;2023-10-13T13:44:25;18.63;;;5.43;;
76640;SDS011;65538;50.798;6.064;2023-10-13T13:47:00;17.35;;;6.15;;
76640;SDS011;65538;50.798;6.064;2023-10-13T13:49:26;15.65;;;5.60;;
76640;SDS011;65538;50.798;6.064;2023-10-13T13:52:04;15.57;;;5.50;;
76640;SDS011;65538;50.798;6.064;2023-10-13T13:54:29;11.30;;;4.43;;
76640;SDS011;65538;50.798;6.064;2023-10-13T13:56:55;12.07;;;3.93;;
76640;SDS011;65538;50.798;6.064;2023-10-13T13:59:20;11.77;;;3.37;;
76640;SDS011;65538;50.798;6.064;2023-10-13T14:01:45;17.67;;;5.13;;
76640;SDS011;65538;50.798;6.064;2023-10-13T14:04:11;19.15;;;5.65;;
76640;SDS011;65538;50.798;6.064;2023-10-13T14:06:36;12.73;;;5.13;;
76640;SDS011;65538;50.798;6.064;2023-10-13T14:09:02;11.70;;;4.93;;
76640;SDS011;65538;50.798;6.064;2023-10-13T14:11:31;12.40;;;4.68;;
76640;SDS011;65538;50.798;6.064;2023-10-13T14:17:00;14.70;;;4.30;;
76640;SDS011;65538;50.798;6.064;2023-10-13T14:19:34;13.80;;;4.75;;
76640;SDS011;65538;50.798;6.064;2023-10-13T14:22:00;10.32;;;4.88;;
76640;SDS011;65538;50.798;6.064;2023-10-13T14:24:31;11.68;;;5.50;;
76640;SDS011;65538;50.798;6.064;2023-10-13T14:27:00;11.27;;;4.15;;
76640;SDS011;65538;50.798;6.064;2023-10-13T14:29:42;18.50;;;5.35;;
76640;SDS011;65538;50.798;6.064;2023-10-13T14:32:08;8.77;;;3.53;;
76640;SDS011;65538;50.798;6.064;2023-10-13T14:34:43;10.18;;;4.95;;
76640;SDS011;65538;50.798;6.064;2023-10-13T14:37:09;12.40;;;6.07;;
76640;SDS011;65538;50.798;6.064;2023-10-13T14:39:37;9.57;;;4.18;;
76640;SDS011;65538;50.798;6.064;2023-10-13T14:42:03;11.03;;;5.03;;
76640;SDS011;65538;50.798;6.064;2023-10-13T14:44:30;12.88;;;4.13;;
76640;SDS011;65538;50.798;6.064;2023-10-13T14:46:56;9.98;;;4.75;;
76640;SDS011;65538;50.798;6.064;2023-10-13T14:49:21;10.67;;;4.43;;
76640;SDS011;65538;50.798;6.064;2023-10-13T14:51:46;7.53;;;4.27;;
76640;SDS011;65538;50.798;6.064;2023-10-13T14:54:11;13.67;;;4.87;;
76640;SDS011;65538;50.798;6.064;2023-10-13T14:56:39;13.45;;;4.78;;
76640;SDS011;65538;50.798;6.064;2023-10-13T14:59:07;14.18;;;5.25;;
76640;SDS011;65538;50.798;6.064;2023-10-13T15:01:32;12.30;;;5.37;;
76640;SDS011;65538;50.798;6.064;2023-10-13T15:03:57;14.67;;;4.47;;
76640;SDS011;65538;50.798;6.064;2023-10-13T15:06:24;10.07;;;3.78;;
76640;SDS011;65538;50.798;6.064;2023-10-13T15:08:58;12.43;;;4.80;;
76640;SDS011;65538;50.798;6.064;2023-10-13T15:11:24;9.77;;;4.07;;
76640;SDS011;65538;50.798;6.064;2023-10-13T15:13:52;9.13;;;4.38;;
76640;SDS011;65538;50.798;6.064;2023-10-13T15:16:18;15.30;;;3.72;;
76640;SDS011;65538;50.798;6.064;2023-10-13T15:18:44;10.82;;;5.13;;
76640;SDS011;65538;50.798;6.064;2023-10-13T15:21:10;11.00;;;4.05;;
76640;SDS011;65538;50.798;6.064;2023-10-13T15:23:35;10.17;;;4.80;;
76640;SDS011;65538;50.798;6.064;2023-10-13T15:26:10;7.80;;;3.85;;
76640;SDS011;65538;50.798;6.064;2023-10-13T15:28:38;7.20;;;3.15;;
76640;SDS011;65538;50.798;6.064;2023-10-13T15:31:11;7.25;;;3.58;;
76640;SDS011;65538;50.798;6.064;2023-10-13T15:33:49;10.18;;;4.47;;
76640;SDS011;65538;50.798;6.064;2023-10-13T15:36:17;7.20;;;4.13;;
76640;SDS011;65538;50.798;6.064;2023-10-13T15:38:42;14.50;;;5.63;;